sensor_id;sensor_type;location;lat;lon;timestamp;temperature;humidity
35497;DHT22;21609;49.298;6.844;2024-03-02T00:00:20;18.00;48.10
35497;DHT22;21609;49.298;6.844;2024-03-02T00:02:48;18.00;48.10
35497;DHT22;21609;49.298;6.844;2024-03-02T00:05:21;18.00;47.90
35497;DHT22;21609;49.298;6.844;2024-03-02T00:07:56;17.90;47.90
35497;DHT22;21609;49.298;6.844;2024-03-02T00:10:25;17.90;48.10
35497;DHT22;21609;49.298;6.844;2024-03-02T00:12:55;17.90;48.20
35497;DHT22;21609;49.298;6.844;2024-03-02T00:17:56;17.90;48.20
35497;DHT22;21609;49.298;6.844;2024-03-02T00:20:23;17.90;48.20
35497;DHT22;21609;49.298;6.844;2024-03-02T00:22:51;17.80;48.10
35497;DHT22;21609;49.298;6.844;2024-03-02T00:25:17;17.80;48.10
35497;DHT22;21609;49.298;6.844;2024-03-02T00:27:47;17.80;48.00
35497;DHT22;21609;49.298;6.844;2024-03-02T00:30:47;17.80;48.00
35497;DHT22;21609;49.298;6.844;2024-03-02T00:33:16;17.70;48.00
35497;DHT22;21609;49.298;6.844;2024-03-02T00:35:44;17.70;47.90
35497;DHT22;21609;49.298;6.844;2024-03-02T00:38:10;17.70;47.90
35497;DHT22;21609;49.298;6.844;2024-03-02T00:40:35;17.70;47.90
35497;DHT22;21609;49.298;6.844;2024-03-02T00:43:02;17.60;47.70
35497;DHT22;21609;49.298;6.844;2024-03-02T00:45:28;17.70;47.80
35497;DHT22;21609;49.298;6.844;2024-03-02T00:47:54;17.60;47.80
35497;DHT22;21609;49.298;6.844;2024-03-02T00:50:20;17.60;47.70
35497;DHT22;21609;49.298;6.844;2024-03-02T00:52:46;17.60;47.80
35497;DHT22;21609;49.298;6.844;2024-03-02T00:55:14;17.60;47.70
35497;DHT22;21609;49.298;6.844;2024-03-02T00:57:39;17.60;47.70
35497;DHT22;21609;49.298;6.844;2024-03-02T01:00:05;17.60;47.70
35497;DHT22;21609;49.298;6.844;2024-03-02T01:02:35;17.50;47.60
35497;DHT22;21609;49.298;6.844;2024-03-02T01:05:00;17.50;47.70
35497;DHT22;21609;49.298;6.844;2024-03-02T01:07:26;17.50;47.70
35497;DHT22;21609;49.298;6.844;2024-03-02T01:09:51;17.50;47.70
35497;DHT22;21609;49.298;6.844;2024-03-02T01:12:17;17.50;47.60
35497;DHT22;21609;49.298;6.844;2024-03-02T01:14:42;17.50;47.60
35497;DHT22;21609;49.298;6.844;2024-03-02T01:17:08;17.40;47.60
35497;DHT22;21609;49.298;6.844;2024-03-02T01:19:33;17.40;47.60
35497;DHT22;21609;49.298;6.844;2024-03-02T01:21:59;17.50;47.60
35497;DHT22;21609;49.298;6.844;2024-03-02T01:24:24;17.40;47.50
35497;DHT22;21609;49.298;6.844;2024-03-02T01:26:50;17.40;47.40
35497;DHT22;21609;49.298;6.844;2024-03-02T01:29:16;17.40;47.40
35497;DHT22;21609;49.298;6.844;2024-03-02T01:31:41;17.30;47.40
35497;DHT22;21609;49.298;6.844;2024-03-02T01:34:08;17.40;47.50
35497;DHT22;21609;49.298;6.844;2024-03-02T01:36:33;17.30;47.50
35497;DHT22;21609;49.298;6.844;2024-03-02T01:38:59;17.30;47.30
35497;DHT22;21609;49.298;6.844;2024-03-02T01:41:25;17.30;47.40
35497;DHT22;21609;49.298;6.844;2024-03-02T01:43:50;17.30;47.40
35497;DHT22;21609;49.298;6.844;2024-03-02T01:46:16;17.30;47.30
35497;DHT22;21609;49.298;6.844;2024-03-02T01:48:42;17.30;47.40
35497;DHT22;21609;49.298;6.844;2024-03-02T01:51:07;17.30;47.50
35497;DHT22;21609;49.298;6.844;2024-03-02T01:53:33;17.30;47.40
35497;DHT22;21609;49.298;6.844;2024-03-02T01:55:59;17.20;47.30
35497;DHT22;21609;49.298;6.844;2024-03-02T01:58:25;17.20;47.30
35497;DHT22;21609;49.298;6.844;2024-03-02T02:00:50;17.20;47.40
35497;DHT22;21609;49.298;6.844;2024-03-02T02:03:16;17.20;47.30
35497;DHT22;21609;49.298;6.844;2024-03-02T02:05:44;17.20;47.30
35497;DHT22;21609;49.298;6.844;2024-03-02T02:08:11;17.20;47.30
35497;DHT22;21609;49.298;6.844;2024-03-02T02:10:36;17.10;47.20
35497;DHT22;21609;49.298;6.844;2024-03-02T02:13:02;17.10;47.20
35497;DHT22;21609;49.298;6.844;2024-03-02T02:15:29;17.10;47.20
35497;DHT22;21609;49.298;6.844;2024-03-02T02:17:56;17.10;47.30
35497;DHT22;21609;49.298;6.844;2024-03-02T02:20:22;17.10;47.30
35497;DHT22;21609;49.298;6.844;2024-03-02T02:23:02;17.10;47.30
35497;DHT22;21609;49.298;6.844;2024-03-02T02:25:28;17.10;47.30
35497;DHT22;21609;49.298;6.844;2024-03-02T02:27:55;17.10;47.30
35497;DHT22;21609;49.298;6.844;2024-03-02T02:30:26;17.10;47.30
35497;DHT22;21609;49.298;6.844;2024-03-02T02:32:52;17.10;47.40
35497;DHT22;21609;49.298;6.844;2024-03-02T02:35:17;17.10;47.40
35497;DHT22;21609;49.298;6.844;2024-03-02T02:37:45;17.10;47.40
35497;DHT22;21609;49.298;6.844;2024-03-02T02:40:11;17.10;47.40
35497;DHT22;21609;49.298;6.844;2024-03-02T02:42:38;17.10;47.40
35497;DHT22;21609;49.298;6.844;2024-03-02T02:45:04;17.10;47.40
35497;DHT22;21609;49.298;6.844;2024-03-02T02:47:30;17.10;47.50
35497;DHT22;21609;49.298;6.844;2024-03-02T02:49:55;17.00;47.40
35497;DHT22;21609;49.298;6.844;2024-03-02T02:52:21;17.00;47.50
35497;DHT22;21609;49.298;6.844;2024-03-02T02:54:47;17.00;47.40
35497;DHT22;21609;49.298;6.844;2024-03-02T02:57:13;17.00;47.40
35497;DHT22;21609;49.298;6.844;2024-03-02T02:59:38;17.00;47.50
35497;DHT22;21609;49.298;6.844;2024-03-02T03:02:04;17.00;47.50
35497;DHT22;21609;49.298;6.844;2024-03-02T03:04:29;17.00;47.50
35497;DHT22;21609;49.298;6.844;2024-03-02T03:06:55;17.00;47.50
35497;DHT22;21609;49.298;6.844;2024-03-02T03:09:20;17.00;47.50
35497;DHT22;21609;49.298;6.844;2024-03-02T03:11:46;17.00;47.60
35497;DHT22;21609;49.298;6.844;2024-03-02T03:14:11;17.00;47.50
35497;DHT22;21609;49.298;6.844;2024-03-02T03:16:37;17.00;47.50
35497;DHT22;21609;49.298;6.844;2024-03-02T03:19:02;17.00;47.50
35497;DHT22;21609;49.298;6.844;2024-03-02T03:21:28;17.00;47.60
35497;DHT22;21609;49.298;6.844;2024-03-02T03:23:54;17.00;47.60
35497;DHT22;21609;49.298;6.844;2024-03-02T03:26:20;17.00;47.60
35497;DHT22;21609;49.298;6.844;2024-03-02T03:28:46;17.00;47.60
35497;DHT22;21609;49.298;6.844;2024-03-02T03:31:11;17.00;47.60
35497;DHT22;21609;49.298;6.844;2024-03-02T03:33:37;17.00;47.70
35497;DHT22;21609;49.298;6.844;2024-03-02T03:36:03;17.00;47.70
35497;DHT22;21609;49.298;6.844;2024-03-02T03:38:29;17.00;47.80
35497;DHT22;21609;49.298;6.844;2024-03-02T03:40:55;17.00;47.80
35497;DHT22;21609;49.298;6.844;2024-03-02T03:43:20;17.00;47.80
35497;DHT22;21609;49.298;6.844;2024-03-02T03:45:46;17.00;47.90
35497;DHT22;21609;49.298;6.844;2024-03-02T03:48:11;16.90;47.80
35497;DHT22;21609;49.298;6.844;2024-03-02T03:50:37;16.90;47.90
35497;DHT22;21609;49.298;6.844;2024-03-02T03:53:03;16.90;47.90
35497;DHT22;21609;49.298;6.844;2024-03-02T03:55:29;16.90;47.90
35497;DHT22;21609;49.298;6.844;2024-03-02T03:57:54;16.90;47.90
35497;DHT22;21609;49.298;6.844;2024-03-02T04:00:20;16.90;47.90
35497;DHT22;21609;49.298;6.844;2024-03-02T04:02:45;16.90;47.90
35497;DHT22;21609;49.298;6.844;2024-03-02T04:05:11;16.90;47.90
35497;DHT22;21609;49.298;6.844;2024-03-02T04:07:37;16.90;48.00
35497;DHT22;21609;49.298;6.844;2024-03-02T04:10:08;16.90;48.00
35497;DHT22;21609;49.298;6.844;2024-03-02T04:12:34;16.90;47.90
35497;DHT22;21609;49.298;6.844;2024-03-02T04:15:01;16.90;48.10
35497;DHT22;21609;49.298;6.844;2024-03-02T04:17:27;16.90;48.10
35497;DHT22;21609;49.298;6.844;2024-03-02T04:19:53;16.80;48.00
35497;DHT22;21609;49.298;6.844;2024-03-02T04:22:18;16.80;48.00
35497;DHT22;21609;49.298;6.844;2024-03-02T04:24:44;16.80;48.00
35497;DHT22;21609;49.298;6.844;2024-03-02T04:27:09;16.80;48.00
35497;DHT22;21609;49.298;6.844;2024-03-02T04:29:35;16.80;48.10
35497;DHT22;21609;49.298;6.844;2024-03-02T04:32:00;16.80;48.10
35497;DHT22;21609;49.298;6.844;2024-03-02T04:34:26;16.80;48.10
35497;DHT22;21609;49.298;6.844;2024-03-02T04:36:51;16.80;48.20
35497;DHT22;21609;49.298;6.844;2024-03-02T04:39:17;16.80;48.10
35497;DHT22;21609;49.298;6.844;2024-03-02T04:41:42;16.80;48.20
35497;DHT22;21609;49.298;6.844;2024-03-02T04:44:08;16.80;48.20
35497;DHT22;21609;49.298;6.844;2024-03-02T04:46:33;16.80;48.10
35497;DHT22;21609;49.298;6.844;2024-03-02T04:48:59;16.80;48.20
35497;DHT22;21609;49.298;6.844;2024-03-02T04:51:24;16.80;48.20
35497;DHT22;21609;49.298;6.844;2024-03-02T04:53:50;16.80;48.30
35497;DHT22;21609;49.298;6.844;2024-03-02T04:56:15;16.80;48.20
35497;DHT22;21609;49.298;6.844;2024-03-02T04:59:08;16.70;48.20
35497;DHT22;21609;49.298;6.844;2024-03-02T05:01:34;16.70;48.30
35497;DHT22;21609;49.298;6.844;2024-03-02T05:04:00;16.70;48.40
35497;DHT22;21609;49.298;6.844;2024-03-02T05:06:25;16.80;48.40
35497;DHT22;21609;49.298;6.844;2024-03-02T05:08:51;16.80;48.30
35497;DHT22;21609;49.298;6.844;2024-03-02T05:11:16;16.70;48.30
35497;DHT22;21609;49.298;6.844;2024-03-02T05:13:57;16.70;48.30
35497;DHT22;21609;49.298;6.844;2024-03-02T05:16:23;16.70;48.30
35497;DHT22;21609;49.298;6.844;2024-03-02T05:18:48;16.70;48.40
35497;DHT22;21609;49.298;6.844;2024-03-02T05:21:14;16.70;48.40
35497;DHT22;21609;49.298;6.844;2024-03-02T05:23:39;16.70;48.40
35497;DHT22;21609;49.298;6.844;2024-03-02T05:26:05;16.70;48.40
35497;DHT22;21609;49.298;6.844;2024-03-02T05:28:31;16.70;48.40
35497;DHT22;21609;49.298;6.844;2024-03-02T05:30:56;16.70;48.30
35497;DHT22;21609;49.298;6.844;2024-03-02T05:33:22;16.60;48.30
35497;DHT22;21609;49.298;6.844;2024-03-02T05:35:48;16.70;48.30
35497;DHT22;21609;49.298;6.844;2024-03-02T05:38:15;16.60;48.30
35497;DHT22;21609;49.298;6.844;2024-03-02T05:40:41;16.60;48.30
35497;DHT22;21609;49.298;6.844;2024-03-02T05:43:06;16.60;48.30
35497;DHT22;21609;49.298;6.844;2024-03-02T05:45:32;16.60;48.40
35497;DHT22;21609;49.298;6.844;2024-03-02T05:47:57;16.60;48.40
35497;DHT22;21609;49.298;6.844;2024-03-02T05:50:23;16.60;48.40
35497;DHT22;21609;49.298;6.844;2024-03-02T05:52:48;16.60;48.30
35497;DHT22;21609;49.298;6.844;2024-03-02T05:55:14;16.60;48.40
35497;DHT22;21609;49.298;6.844;2024-03-02T05:57:40;16.60;48.40
35497;DHT22;21609;49.298;6.844;2024-03-02T06:00:09;16.60;48.40
35497;DHT22;21609;49.298;6.844;2024-03-02T06:02:34;16.60;48.50
35497;DHT22;21609;49.298;6.844;2024-03-02T06:05:03;16.60;48.50
35497;DHT22;21609;49.298;6.844;2024-03-02T06:07:29;16.60;48.50
35497;DHT22;21609;49.298;6.844;2024-03-02T06:09:55;16.60;48.50
35497;DHT22;21609;49.298;6.844;2024-03-02T06:12:20;16.60;48.50
35497;DHT22;21609;49.298;6.844;2024-03-02T06:14:46;16.50;48.40
35497;DHT22;21609;49.298;6.844;2024-03-02T06:17:11;16.60;48.60
35497;DHT22;21609;49.298;6.844;2024-03-02T06:19:37;16.60;48.50
35497;DHT22;21609;49.298;6.844;2024-03-02T06:22:03;16.50;48.50
35497;DHT22;21609;49.298;6.844;2024-03-02T06:24:29;16.50;48.40
35497;DHT22;21609;49.298;6.844;2024-03-02T06:26:54;16.50;48.50
35497;DHT22;21609;49.298;6.844;2024-03-02T06:29:20;16.50;49.10
35497;DHT22;21609;49.298;6.844;2024-03-02T06:31:47;16.50;48.50
35497;DHT22;21609;49.298;6.844;2024-03-02T06:34:12;16.50;48.60
35497;DHT22;21609;49.298;6.844;2024-03-02T06:36:38;16.50;48.60
35497;DHT22;21609;49.298;6.844;2024-03-02T06:39:05;16.50;48.60
35497;DHT22;21609;49.298;6.844;2024-03-02T06:41:31;16.50;48.70
35497;DHT22;21609;49.298;6.844;2024-03-02T06:43:57;16.50;48.60
35497;DHT22;21609;49.298;6.844;2024-03-02T06:46:25;16.50;48.80
35497;DHT22;21609;49.298;6.844;2024-03-02T06:48:51;16.50;48.60
35497;DHT22;21609;49.298;6.844;2024-03-02T06:51:16;16.50;48.70
35497;DHT22;21609;49.298;6.844;2024-03-02T06:53:42;16.50;48.70
35497;DHT22;21609;49.298;6.844;2024-03-02T06:56:08;16.40;48.70
35497;DHT22;21609;49.298;6.844;2024-03-02T06:58:33;16.40;48.60
35497;DHT22;21609;49.298;6.844;2024-03-02T07:00:59;16.40;48.70
35497;DHT22;21609;49.298;6.844;2024-03-02T07:03:26;16.40;48.70
35497;DHT22;21609;49.298;6.844;2024-03-02T07:05:51;16.40;48.70
35497;DHT22;21609;49.298;6.844;2024-03-02T07:08:17;16.40;48.70
35497;DHT22;21609;49.298;6.844;2024-03-02T07:10:42;16.40;48.70
35497;DHT22;21609;49.298;6.844;2024-03-02T07:13:08;16.40;48.60
35497;DHT22;21609;49.298;6.844;2024-03-02T07:15:33;16.40;48.70
35497;DHT22;21609;49.298;6.844;2024-03-02T07:18:02;16.40;48.80
35497;DHT22;21609;49.298;6.844;2024-03-02T07:20:28;16.40;48.90
35497;DHT22;21609;49.298;6.844;2024-03-02T07:22:53;16.40;48.80
35497;DHT22;21609;49.298;6.844;2024-03-02T07:25:19;16.40;48.80
35497;DHT22;21609;49.298;6.844;2024-03-02T07:27:45;16.40;49.00
35497;DHT22;21609;49.298;6.844;2024-03-02T07:30:13;16.30;48.70
35497;DHT22;21609;49.298;6.844;2024-03-02T07:32:39;16.40;48.80
35497;DHT22;21609;49.298;6.844;2024-03-02T07:35:07;16.40;48.90
35497;DHT22;21609;49.298;6.844;2024-03-02T07:37:33;16.40;48.80
35497;DHT22;21609;49.298;6.844;2024-03-02T07:39:58;16.40;48.80
35497;DHT22;21609;49.298;6.844;2024-03-02T07:42:24;16.40;48.90
35497;DHT22;21609;49.298;6.844;2024-03-02T07:44:49;16.40;48.80
35497;DHT22;21609;49.298;6.844;2024-03-02T07:47:15;16.30;48.80
35497;DHT22;21609;49.298;6.844;2024-03-02T07:49:40;16.30;48.80
35497;DHT22;21609;49.298;6.844;2024-03-02T07:52:06;16.30;48.90
35497;DHT22;21609;49.298;6.844;2024-03-02T07:54:33;16.30;48.90
35497;DHT22;21609;49.298;6.844;2024-03-02T07:56:58;16.40;49.10
35497;DHT22;21609;49.298;6.844;2024-03-02T07:59:24;16.30;49.10
35497;DHT22;21609;49.298;6.844;2024-03-02T08:01:49;16.30;49.20
35497;DHT22;21609;49.298;6.844;2024-03-02T08:04:16;16.30;49.10
35497;DHT22;21609;49.298;6.844;2024-03-02T08:06:41;16.30;49.10
35497;DHT22;21609;49.298;6.844;2024-03-02T08:09:07;16.30;49.20
35497;DHT22;21609;49.298;6.844;2024-03-02T08:11:35;16.30;49.10
35497;DHT22;21609;49.298;6.844;2024-03-02T08:14:01;16.30;48.90
35497;DHT22;21609;49.298;6.844;2024-03-02T08:16:27;16.30;49.30
35497;DHT22;21609;49.298;6.844;2024-03-02T08:18:52;16.30;49.30
35497;DHT22;21609;49.298;6.844;2024-03-02T08:21:18;16.30;49.30
35497;DHT22;21609;49.298;6.844;2024-03-02T08:23:44;16.30;49.50
35497;DHT22;21609;49.298;6.844;2024-03-02T08:26:10;16.30;49.40
35497;DHT22;21609;49.298;6.844;2024-03-02T08:28:36;16.30;49.40
35497;DHT22;21609;49.298;6.844;2024-03-02T08:31:03;16.30;49.10
35497;DHT22;21609;49.298;6.844;2024-03-02T08:33:29;16.30;49.50
35497;DHT22;21609;49.298;6.844;2024-03-02T08:35:55;16.30;49.30
35497;DHT22;21609;49.298;6.844;2024-03-02T08:38:21;16.20;49.50
35497;DHT22;21609;49.298;6.844;2024-03-02T08:40:47;16.20;49.50
35497;DHT22;21609;49.298;6.844;2024-03-02T08:43:12;16.20;49.30
35497;DHT22;21609;49.298;6.844;2024-03-02T08:45:38;16.20;49.20
35497;DHT22;21609;49.298;6.844;2024-03-02T08:48:06;16.20;49.30
35497;DHT22;21609;49.298;6.844;2024-03-02T08:50:32;16.20;49.20
35497;DHT22;21609;49.298;6.844;2024-03-02T08:52:58;16.20;49.50
35497;DHT22;21609;49.298;6.844;2024-03-02T08:55:23;16.20;49.50
35497;DHT22;21609;49.298;6.844;2024-03-02T08:57:49;16.20;49.50
35497;DHT22;21609;49.298;6.844;2024-03-02T09:00:16;16.20;49.70
35497;DHT22;21609;49.298;6.844;2024-03-02T09:02:44;16.20;49.50
35497;DHT22;21609;49.298;6.844;2024-03-02T09:05:09;16.20;49.50
35497;DHT22;21609;49.298;6.844;2024-03-02T09:07:35;16.20;49.40
35497;DHT22;21609;49.298;6.844;2024-03-02T09:10:00;16.20;49.50
35497;DHT22;21609;49.298;6.844;2024-03-02T09:12:26;16.20;49.60
35497;DHT22;21609;49.298;6.844;2024-03-02T09:14:52;16.20;49.50
35497;DHT22;21609;49.298;6.844;2024-03-02T09:17:17;16.20;49.60
35497;DHT22;21609;49.298;6.844;2024-03-02T09:19:43;16.20;49.40
35497;DHT22;21609;49.298;6.844;2024-03-02T09:22:08;16.30;49.40
35497;DHT22;21609;49.298;6.844;2024-03-02T09:24:35;16.30;49.30
35497;DHT22;21609;49.298;6.844;2024-03-02T09:27:00;16.30;49.20
35497;DHT22;21609;49.298;6.844;2024-03-02T09:29:26;16.30;49.10
35497;DHT22;21609;49.298;6.844;2024-03-02T09:31:51;16.40;49.10
35497;DHT22;21609;49.298;6.844;2024-03-02T09:34:17;16.40;49.00
35497;DHT22;21609;49.298;6.844;2024-03-02T09:36:43;16.40;49.00
35497;DHT22;21609;49.298;6.844;2024-03-02T09:39:09;16.40;48.90
35497;DHT22;21609;49.298;6.844;2024-03-02T09:41:36;16.40;48.80
35497;DHT22;21609;49.298;6.844;2024-03-02T09:44:02;16.50;48.80
35497;DHT22;21609;49.298;6.844;2024-03-02T09:46:28;16.50;48.80
35497;DHT22;21609;49.298;6.844;2024-03-02T09:48:54;16.50;48.80
35497;DHT22;21609;49.298;6.844;2024-03-02T09:51:19;16.60;48.80
35497;DHT22;21609;49.298;6.844;2024-03-02T09:53:45;16.60;48.90
35497;DHT22;21609;49.298;6.844;2024-03-02T09:56:12;16.60;48.90
35497;DHT22;21609;49.298;6.844;2024-03-02T09:58:39;16.60;48.80
35497;DHT22;21609;49.298;6.844;2024-03-02T10:01:07;16.60;48.80
35497;DHT22;21609;49.298;6.844;2024-03-02T10:03:34;16.60;48.80
35497;DHT22;21609;49.298;6.844;2024-03-02T10:06:25;16.60;48.80
35497;DHT22;21609;49.298;6.844;2024-03-02T10:08:51;16.70;49.10
35497;DHT22;21609;49.298;6.844;2024-03-02T10:11:35;16.70;48.90
35497;DHT22;21609;49.298;6.844;2024-03-02T10:14:13;16.70;49.10
35497;DHT22;21609;49.298;6.844;2024-03-02T10:19:39;16.70;48.90
35497;DHT22;21609;49.298;6.844;2024-03-02T10:22:09;16.80;49.00
35497;DHT22;21609;49.298;6.844;2024-03-02T10:24:42;16.80;48.90
35497;DHT22;21609;49.298;6.844;2024-03-02T10:27:14;16.80;48.90
35497;DHT22;21609;49.298;6.844;2024-03-02T10:29:40;16.80;48.90
35497;DHT22;21609;49.298;6.844;2024-03-02T10:32:09;16.80;48.90
35497;DHT22;21609;49.298;6.844;2024-03-02T10:34:35;16.80;49.00
35497;DHT22;21609;49.298;6.844;2024-03-02T10:37:01;16.80;48.90
35497;DHT22;21609;49.298;6.844;2024-03-02T10:39:28;16.80;49.00
35497;DHT22;21609;49.298;6.844;2024-03-02T10:41:55;16.80;49.10
35497;DHT22;21609;49.298;6.844;2024-03-02T10:44:22;16.70;49.10
35497;DHT22;21609;49.298;6.844;2024-03-02T10:46:49;17.00;49.40
35497;DHT22;21609;49.298;6.844;2024-03-02T10:49:19;17.20;49.10
35497;DHT22;21609;49.298;6.844;2024-03-02T10:51:46;17.30;48.50
35497;DHT22;21609;49.298;6.844;2024-03-02T10:54:11;17.50;48.70
35497;DHT22;21609;49.298;6.844;2024-03-02T10:56:41;17.70;48.40
35497;DHT22;21609;49.298;6.844;2024-03-02T11:01:42;18.20;47.80
35497;DHT22;21609;49.298;6.844;2024-03-02T11:04:09;18.40;47.40
35497;DHT22;21609;49.298;6.844;2024-03-02T11:06:36;18.50;47.20
35497;DHT22;21609;49.298;6.844;2024-03-02T11:09:07;18.70;47.10
35497;DHT22;21609;49.298;6.844;2024-03-02T11:11:40;18.90;46.90
35497;DHT22;21609;49.298;6.844;2024-03-02T11:14:09;19.10;46.50
35497;DHT22;21609;49.298;6.844;2024-03-02T11:16:38;19.20;46.30
35497;DHT22;21609;49.298;6.844;2024-03-02T11:19:10;19.30;46.30
35497;DHT22;21609;49.298;6.844;2024-03-02T11:21:36;19.30;46.20
35497;DHT22;21609;49.298;6.844;2024-03-02T11:26:46;19.50;46.20
35497;DHT22;21609;49.298;6.844;2024-03-02T11:32:12;19.70;46.00
35497;DHT22;21609;49.298;6.844;2024-03-02T11:34:41;19.80;46.10
35497;DHT22;21609;49.298;6.844;2024-03-02T11:37:11;19.80;46.10
35497;DHT22;21609;49.298;6.844;2024-03-02T11:39:38;19.90;46.20
35497;DHT22;21609;49.298;6.844;2024-03-02T11:42:08;20.00;46.20
35497;DHT22;21609;49.298;6.844;2024-03-02T11:44:35;20.10;46.10
35497;DHT22;21609;49.298;6.844;2024-03-02T11:47:03;20.30;46.10
35497;DHT22;21609;49.298;6.844;2024-03-02T11:52:08;19.70;47.30
35497;DHT22;21609;49.298;6.844;2024-03-02T11:54:36;19.60;47.70
35497;DHT22;21609;49.298;6.844;2024-03-02T11:57:03;19.50;47.90
35497;DHT22;21609;49.298;6.844;2024-03-02T11:59:29;19.40;48.00
35497;DHT22;21609;49.298;6.844;2024-03-02T12:01:55;19.40;48.00
35497;DHT22;21609;49.298;6.844;2024-03-02T12:04:22;19.40;48.00
35497;DHT22;21609;49.298;6.844;2024-03-02T12:06:54;19.40;47.90
35497;DHT22;21609;49.298;6.844;2024-03-02T12:09:21;19.50;48.10
35497;DHT22;21609;49.298;6.844;2024-03-02T12:11:46;19.50;48.10
35497;DHT22;21609;49.298;6.844;2024-03-02T12:14:12;19.40;48.00
35497;DHT22;21609;49.298;6.844;2024-03-02T12:16:44;19.40;48.00
35497;DHT22;21609;49.298;6.844;2024-03-02T12:19:09;19.40;48.00
35497;DHT22;21609;49.298;6.844;2024-03-02T12:21:35;19.40;48.20
35497;DHT22;21609;49.298;6.844;2024-03-02T12:24:02;19.40;48.10
35497;DHT22;21609;49.298;6.844;2024-03-02T12:26:28;19.30;48.10
35497;DHT22;21609;49.298;6.844;2024-03-02T12:28:53;19.30;48.10
35497;DHT22;21609;49.298;6.844;2024-03-02T12:31:20;19.40;48.10
35497;DHT22;21609;49.298;6.844;2024-03-02T12:33:46;19.40;48.10
35497;DHT22;21609;49.298;6.844;2024-03-02T12:36:13;19.40;48.00
35497;DHT22;21609;49.298;6.844;2024-03-02T12:38:43;19.40;48.00
35497;DHT22;21609;49.298;6.844;2024-03-02T12:41:09;19.40;48.00
35497;DHT22;21609;49.298;6.844;2024-03-02T12:43:34;19.40;47.80
35497;DHT22;21609;49.298;6.844;2024-03-02T12:46:00;19.40;48.00
35497;DHT22;21609;49.298;6.844;2024-03-02T12:48:26;19.40;47.90
35497;DHT22;21609;49.298;6.844;2024-03-02T12:50:51;19.40;47.80
35497;DHT22;21609;49.298;6.844;2024-03-02T12:53:17;19.50;47.80
35497;DHT22;21609;49.298;6.844;2024-03-02T12:55:43;19.50;47.80
35497;DHT22;21609;49.298;6.844;2024-03-02T12:58:19;19.40;48.00
35497;DHT22;21609;49.298;6.844;2024-03-02T13:00:46;19.30;47.90
35497;DHT22;21609;49.298;6.844;2024-03-02T13:03:11;19.30;48.00
35497;DHT22;21609;49.298;6.844;2024-03-02T13:05:37;19.40;48.00
35497;DHT22;21609;49.298;6.844;2024-03-02T13:08:03;19.40;48.00
35497;DHT22;21609;49.298;6.844;2024-03-02T13:10:30;19.30;48.00
35497;DHT22;21609;49.298;6.844;2024-03-02T13:12:56;19.30;48.00
35497;DHT22;21609;49.298;6.844;2024-03-02T13:15:22;19.40;48.00
35497;DHT22;21609;49.298;6.844;2024-03-02T13:17:48;19.30;48.00
35497;DHT22;21609;49.298;6.844;2024-03-02T13:20:14;19.30;48.00
35497;DHT22;21609;49.298;6.844;2024-03-02T13:22:40;19.40;48.00
35497;DHT22;21609;49.298;6.844;2024-03-02T13:25:06;19.30;48.00
35497;DHT22;21609;49.298;6.844;2024-03-02T13:27:33;19.30;48.00
35497;DHT22;21609;49.298;6.844;2024-03-02T13:29:59;19.30;48.00
35497;DHT22;21609;49.298;6.844;2024-03-02T13:32:24;19.20;47.90
35497;DHT22;21609;49.298;6.844;2024-03-02T13:34:51;19.20;47.90
35497;DHT22;21609;49.298;6.844;2024-03-02T13:37:16;19.20;47.90
35497;DHT22;21609;49.298;6.844;2024-03-02T13:39:42;19.20;47.90
35497;DHT22;21609;49.298;6.844;2024-03-02T13:42:12;19.30;47.90
35497;DHT22;21609;49.298;6.844;2024-03-02T13:44:40;19.30;47.90
35497;DHT22;21609;49.298;6.844;2024-03-02T13:47:07;19.30;47.90
35497;DHT22;21609;49.298;6.844;2024-03-02T13:49:32;19.30;47.90
35497;DHT22;21609;49.298;6.844;2024-03-02T13:52:08;19.30;47.80
35497;DHT22;21609;49.298;6.844;2024-03-02T13:54:45;19.30;47.90
35497;DHT22;21609;49.298;6.844;2024-03-02T13:57:11;19.30;47.80
35497;DHT22;21609;49.298;6.844;2024-03-02T13:59:38;19.30;47.90
35497;DHT22;21609;49.298;6.844;2024-03-02T14:02:05;19.40;47.80
35497;DHT22;21609;49.298;6.844;2024-03-02T14:04:34;19.40;47.80
35497;DHT22;21609;49.298;6.844;2024-03-02T14:07:00;19.40;47.90
35497;DHT22;21609;49.298;6.844;2024-03-02T14:09:26;19.50;47.90
35497;DHT22;21609;49.298;6.844;2024-03-02T14:11:53;19.50;47.90
35497;DHT22;21609;49.298;6.844;2024-03-02T14:14:18;19.40;47.90
35497;DHT22;21609;49.298;6.844;2024-03-02T14:16:44;19.50;47.90
35497;DHT22;21609;49.298;6.844;2024-03-02T14:19:10;19.40;47.90
35497;DHT22;21609;49.298;6.844;2024-03-02T14:21:40;19.40;47.90
35497;DHT22;21609;49.298;6.844;2024-03-02T14:24:05;19.40;47.90
35497;DHT22;21609;49.298;6.844;2024-03-02T14:26:35;19.40;47.90
35497;DHT22;21609;49.298;6.844;2024-03-02T14:29:02;19.40;47.90
35497;DHT22;21609;49.298;6.844;2024-03-02T14:31:28;19.40;47.90
35497;DHT22;21609;49.298;6.844;2024-03-02T14:33:54;19.40;48.00
35497;DHT22;21609;49.298;6.844;2024-03-02T14:36:20;19.40;48.00
35497;DHT22;21609;49.298;6.844;2024-03-02T14:38:46;19.40;47.90
35497;DHT22;21609;49.298;6.844;2024-03-02T14:41:12;19.40;47.90
35497;DHT22;21609;49.298;6.844;2024-03-02T14:43:38;19.40;47.90
35497;DHT22;21609;49.298;6.844;2024-03-02T14:46:04;19.50;47.90
35497;DHT22;21609;49.298;6.844;2024-03-02T14:48:29;19.50;48.00
35497;DHT22;21609;49.298;6.844;2024-03-02T14:50:55;19.50;48.00
35497;DHT22;21609;49.298;6.844;2024-03-02T14:53:21;19.50;48.00
35497;DHT22;21609;49.298;6.844;2024-03-02T14:55:46;19.50;48.00
35497;DHT22;21609;49.298;6.844;2024-03-02T14:58:12;19.50;48.00
35497;DHT22;21609;49.298;6.844;2024-03-02T15:00:37;19.50;47.90
35497;DHT22;21609;49.298;6.844;2024-03-02T15:03:04;19.50;47.90
35497;DHT22;21609;49.298;6.844;2024-03-02T15:05:33;19.50;47.90
35497;DHT22;21609;49.298;6.844;2024-03-02T15:07:58;19.50;47.90
35497;DHT22;21609;49.298;6.844;2024-03-02T15:10:27;19.60;47.90
35497;DHT22;21609;49.298;6.844;2024-03-02T15:12:53;19.60;47.70
35497;DHT22;21609;49.298;6.844;2024-03-02T15:15:18;19.60;47.80
35497;DHT22;21609;49.298;6.844;2024-03-02T15:17:44;19.60;47.90
35497;DHT22;21609;49.298;6.844;2024-03-02T15:20:10;19.60;47.80
35497;DHT22;21609;49.298;6.844;2024-03-02T15:22:35;19.60;47.90
35497;DHT22;21609;49.298;6.844;2024-03-02T15:25:01;19.60;47.90
35497;DHT22;21609;49.298;6.844;2024-03-02T15:27:26;19.60;47.90
35497;DHT22;21609;49.298;6.844;2024-03-02T15:29:53;19.50;47.80
35497;DHT22;21609;49.298;6.844;2024-03-02T15:32:20;19.60;47.90
35497;DHT22;21609;49.298;6.844;2024-03-02T15:34:46;19.60;47.90
35497;DHT22;21609;49.298;6.844;2024-03-02T15:37:11;19.50;47.90
35497;DHT22;21609;49.298;6.844;2024-03-02T15:39:37;19.50;47.90
35497;DHT22;21609;49.298;6.844;2024-03-02T15:42:03;19.50;47.80